createdAt,value
2018-10-03T00:01:42.546Z,98708.11
2018-10-03T00:04:13.361Z,98702.69
2018-10-03T00:06:43.058Z,98703.95
2018-10-03T00:09:12.410Z,98698.00
2018-10-03T00:11:41.729Z,98705.63
2018-10-03T00:14:12.598Z,98693.48
2018-10-03T00:16:41.939Z,98702.24
2018-10-03T00:19:12.965Z,98703.38
2018-10-03T00:21:42.849Z,98695.74
2018-10-03T00:24:11.972Z,98698.81
2018-10-03T00:26:41.065Z,98699.95
2018-10-03T00:29:11.068Z,98694.08
2018-10-03T00:31:40.554Z,98696.97
2018-10-03T00:34:09.658Z,98687.80
2018-10-03T00:36:38.785Z,98696.89
2018-10-03T00:39:10.179Z,98695.42
2018-10-03T00:41:39.771Z,98696.08
2018-10-03T00:44:09.190Z,98698.66
2018-10-03T00:46:38.706Z,98698.31
2018-10-03T00:49:08.629Z,98701.11
2018-10-03T00:51:38.106Z,98703.27
2018-10-03T00:54:07.634Z,98707.48
2018-10-03T00:56:36.802Z,98699.94
2018-10-03T00:59:05.988Z,98709.09
2018-10-03T01:01:35.058Z,98702.67
2018-10-03T01:04:04.237Z,98695.03
2018-10-03T01:06:33.364Z,98690.63
2018-10-03T01:09:02.924Z,98699.74
2018-10-03T01:11:32.121Z,98691.33
2018-10-03T01:14:01.190Z,98688.72
2018-10-03T01:16:30.339Z,98683.89
2018-10-03T01:18:59.534Z,98687.66
2018-10-03T01:21:28.906Z,98690.00
2018-10-03T01:23:58.038Z,98708.80
2018-10-03T01:26:34.043Z,98710.21
2018-10-03T01:29:03.750Z,98717.39
2018-10-03T01:31:33.022Z,98712.91
2018-10-03T01:34:02.130Z,98713.47
2018-10-03T01:36:31.237Z,98713.27
2018-10-03T01:39:00.406Z,98704.69
2018-10-03T01:41:29.733Z,98703.06
2018-10-03T01:43:58.857Z,98716.23
2018-10-03T01:46:27.994Z,98714.47
2018-10-03T01:48:57.101Z,98706.78
2018-10-03T01:51:26.214Z,98707.47
2018-10-03T01:53:55.346Z,98704.87
2018-10-03T01:56:25.197Z,98706.05
2018-10-03T01:58:54.356Z,98701.94
2018-10-03T02:01:23.495Z,98699.19
2018-10-03T02:03:52.682Z,98705.22
2018-10-03T02:06:21.873Z,98705.02
2018-10-03T02:08:51.008Z,98718.59
2018-10-03T02:11:20.152Z,98711.92
2018-10-03T02:13:49.290Z,98713.45
2018-10-03T02:16:19.340Z,98706.92
2018-10-03T02:18:49.152Z,98710.89
2018-10-03T02:21:18.721Z,98708.02
2018-10-03T02:23:47.974Z,98720.45
2018-10-03T02:26:17.098Z,98719.83
2018-10-03T02:28:46.199Z,98713.59
2018-10-03T02:31:15.344Z,98701.00
2018-10-03T02:33:44.454Z,98706.83
2018-10-03T02:36:14.097Z,98715.45
2018-10-03T02:38:43.339Z,98714.02
2018-10-03T02:41:12.540Z,98725.00
2018-10-03T02:43:42.286Z,98727.98
2018-10-03T02:46:11.574Z,98716.87
2018-10-03T02:48:40.978Z,98722.27
2018-10-03T02:51:11.860Z,98723.33
2018-10-03T02:53:40.993Z,98709.36
2018-10-03T02:56:15.277Z,98714.27
2018-10-03T02:58:44.587Z,98717.45
2018-10-03T03:01:13.901Z,98724.15
2018-10-03T03:03:43.938Z,98726.00
2018-10-03T03:06:13.223Z,98727.22
2018-10-03T03:08:42.420Z,98722.45
2018-10-03T03:11:11.452Z,98721.70
2018-10-03T03:13:40.554Z,98726.30
2018-10-03T03:16:09.657Z,98721.25
2018-10-03T03:18:38.758Z,98727.57
2018-10-03T03:21:11.273Z,98720.72
2018-10-03T03:23:40.618Z,98714.48
2018-10-03T03:26:09.759Z,98709.94
2018-10-03T03:28:38.947Z,98723.61
2018-10-03T03:31:08.165Z,98727.13
2018-10-03T03:33:37.375Z,98723.03
2018-10-03T03:36:08.198Z,98727.83
2018-10-03T03:38:37.291Z,98729.47
2018-10-03T03:41:06.583Z,98732.16
2018-10-03T03:43:35.906Z,98727.89
2018-10-03T03:46:05.154Z,98727.77
2018-10-03T03:48:34.379Z,98727.28
2018-10-03T03:51:03.655Z,98726.02
2018-10-03T03:53:33.519Z,98724.31
2018-10-03T03:56:03.144Z,98728.77
2018-10-03T03:58:32.282Z,98725.88
2018-10-03T04:01:01.394Z,98730.34
2018-10-03T04:03:30.651Z,98724.61
2018-10-03T04:05:59.739Z,98728.89
2018-10-03T04:08:28.832Z,98732.75
2018-10-03T04:10:57.934Z,98737.60
2018-10-03T04:13:27.037Z,98737.84
2018-10-03T04:15:56.182Z,98740.25
2018-10-03T04:18:25.289Z,98744.20
2018-10-03T04:20:54.379Z,98747.73
2018-10-03T04:23:23.541Z,98748.81
2018-10-03T04:25:52.630Z,98754.69
2018-10-03T04:28:21.731Z,98749.94
2018-10-03T04:30:51.422Z,98751.33
2018-10-03T04:33:20.546Z,98754.02
2018-10-03T04:35:49.746Z,98759.91
2018-10-03T04:38:18.843Z,98763.91
2018-10-03T04:40:48.486Z,98756.08
2018-10-03T04:43:17.676Z,98755.15
2018-10-03T04:45:46.914Z,98754.60
2018-10-03T04:48:16.090Z,98750.70
2018-10-03T04:50:45.283Z,98755.58
2018-10-03T04:53:14.546Z,98761.21
2018-10-03T04:55:43.781Z,98761.12
2018-10-03T04:58:12.999Z,98756.94
2018-10-03T05:00:42.314Z,98763.39
2018-10-03T05:03:11.623Z,98766.20
2018-10-03T05:05:40.803Z,98759.50
2018-10-03T05:08:09.980Z,98742.59
2018-10-03T05:10:39.234Z,98745.41
2018-10-03T05:13:09.403Z,98754.33
2018-10-03T05:15:38.502Z,98768.70
2018-10-03T05:18:07.619Z,98768.13
2018-10-03T05:20:36.705Z,98766.25
2018-10-03T05:23:06.690Z,98766.78
2018-10-03T05:25:35.802Z,98770.91
2018-10-03T05:28:04.891Z,98767.70
2018-10-03T05:30:34.054Z,98780.01
2018-10-03T05:33:03.146Z,98782.08
2018-10-03T05:35:32.242Z,98785.22
2018-10-03T05:38:01.370Z,98781.53
2018-10-03T05:40:30.510Z,98790.06
2018-10-03T05:43:00.365Z,98797.46
2018-10-03T05:45:29.703Z,98804.09
2018-10-03T05:47:58.982Z,98804.66
2018-10-03T05:50:28.331Z,98809.33
2018-10-03T05:52:57.571Z,98811.53
2018-10-03T05:55:27.202Z,98820.70
2018-10-03T05:57:56.456Z,98824.94
2018-10-03T06:00:30.462Z,98823.67
2018-10-03T06:02:59.675Z,98826.38
2018-10-03T06:05:29.429Z,98831.52
2018-10-03T06:07:58.634Z,98837.30
2018-10-03T06:10:27.885Z,98840.67
2018-10-03T06:12:56.990Z,98836.20
2018-10-03T06:15:26.126Z,98837.88
2018-10-03T06:17:57.367Z,98845.80
2018-10-03T06:20:26.526Z,98851.60
2018-10-03T06:22:55.678Z,98849.33
2018-10-03T06:25:24.776Z,98849.05
2018-10-03T06:27:53.970Z,98855.00
2018-10-03T06:30:22.962Z,98851.67
2018-10-03T06:32:52.275Z,98862.86
2018-10-03T06:35:27.895Z,98855.59
2018-10-03T06:37:56.998Z,98855.88
2018-10-03T06:40:26.132Z,98865.70
2018-10-03T06:42:55.438Z,98864.57
2018-10-03T06:45:24.711Z,98872.66
2018-10-03T06:47:53.978Z,98877.33
2018-10-03T06:50:24.653Z,98876.97
2018-10-03T06:52:54.038Z,98887.81
2018-10-03T06:55:23.650Z,98884.80
2018-10-03T06:57:54.801Z,98883.88
2018-10-03T07:00:23.891Z,98886.34
2018-10-03T07:02:53.374Z,98896.90
2018-10-03T07:05:22.858Z,98899.89
2018-10-03T07:07:52.442Z,98902.84
2018-10-03T07:10:21.544Z,98901.86
2018-10-03T07:12:50.699Z,98905.72
2018-10-03T07:15:20.473Z,98908.30
2018-10-03T07:17:49.614Z,98905.05
2018-10-03T07:20:18.811Z,98908.27
2018-10-03T07:22:47.849Z,98908.63
2018-10-03T07:25:16.934Z,98919.01
2018-10-03T07:27:46.082Z,98917.59
2018-10-03T07:30:15.161Z,98927.73
2018-10-03T07:32:44.334Z,98929.95
2018-10-03T07:35:14.378Z,98938.88
2018-10-03T07:37:43.514Z,98938.91
2018-10-03T07:40:12.659Z,98945.84
2018-10-03T07:42:42.260Z,98950.86
2018-10-03T07:45:11.715Z,98960.30
2018-10-03T07:47:41.264Z,98962.03
2018-10-03T07:50:10.483Z,98958.17
2018-10-03T07:52:39.627Z,98959.78
2018-10-03T07:55:09.407Z,98960.16
2018-10-03T07:57:38.482Z,98957.09
2018-10-03T08:00:08.747Z,98949.41
2018-10-03T08:02:38.254Z,98940.38
2018-10-03T08:05:07.358Z,98932.79
2018-10-03T08:07:37.307Z,98934.14
2018-10-03T08:10:06.429Z,98919.42
2018-10-03T08:12:35.502Z,98913.51
2018-10-03T08:15:05.517Z,98904.91
2018-10-03T08:17:35.403Z,98905.92
2018-10-03T08:20:04.854Z,98908.52
2018-10-03T08:22:34.954Z,98914.82
2018-10-03T08:25:04.454Z,98930.53
2018-10-03T08:27:33.609Z,98930.70
2018-10-03T08:30:03.282Z,98933.26
2018-10-03T08:32:32.391Z,98935.16
2018-10-03T08:35:01.459Z,98933.84
2018-10-03T08:37:31.481Z,98940.11
2018-10-03T08:40:00.686Z,98946.69
2018-10-03T08:42:29.780Z,98954.52
2018-10-03T08:44:59.419Z,98952.52
2018-10-03T08:47:30.242Z,98951.55
2018-10-03T08:50:00.122Z,98962.29
2018-10-03T08:52:29.252Z,98964.41
2018-10-03T08:54:58.351Z,98968.48
2018-10-03T08:57:27.434Z,98968.56
2018-10-03T08:59:56.595Z,98964.34
2018-10-03T09:02:25.690Z,98964.70
2018-10-03T09:04:55.067Z,98978.14
2018-10-03T09:07:24.438Z,98968.81
2018-10-03T09:09:55.095Z,98963.88
2018-10-03T09:12:24.223Z,98964.45
2018-10-03T09:14:53.568Z,98962.30
2018-10-03T09:17:22.698Z,98956.01
2018-10-03T09:19:51.842Z,98954.63
2018-10-03T09:22:21.035Z,98950.28
2018-10-03T09:24:50.198Z,98958.23
2018-10-03T09:27:19.802Z,98960.02
2018-10-03T09:29:48.987Z,98954.02
2018-10-03T09:32:18.084Z,98959.84
2018-10-03T09:34:47.160Z,98962.64
2018-10-03T09:37:16.291Z,98963.79
2018-10-03T09:39:45.395Z,98974.27
2018-10-03T09:42:15.322Z,98975.62
2018-10-03T09:44:44.699Z,98972.41
2018-10-03T09:47:13.995Z,98975.17
2018-10-03T09:49:43.462Z,98974.09
2018-10-03T09:52:13.290Z,98968.62
2018-10-03T09:54:42.498Z,98965.30
2018-10-03T09:57:11.749Z,98962.39
2018-10-03T09:59:41.750Z,98962.92
2018-10-03T10:02:10.985Z,98974.88
2018-10-03T10:04:41.311Z,98972.90
2018-10-03T10:07:11.228Z,98980.44
2018-10-03T10:09:41.044Z,98967.82
2018-10-03T10:12:10.418Z,98976.78
2018-10-03T10:14:40.085Z,98976.34
2018-10-03T10:17:09.738Z,98972.27
2018-10-03T10:19:39.040Z,98973.31
2018-10-03T10:22:08.193Z,98968.05
2018-10-03T10:24:37.287Z,98973.80
2018-10-03T10:27:06.606Z,98983.41
2018-10-03T10:29:35.778Z,98981.88
2018-10-03T10:32:05.376Z,98983.35
2018-10-03T10:34:34.444Z,98983.98
2018-10-03T10:37:03.562Z,98980.79
2018-10-03T10:39:32.651Z,98982.51
2018-10-03T10:42:03.954Z,98977.80
2018-10-03T10:44:33.222Z,98975.48
2018-10-03T10:47:02.766Z,98979.17
2018-10-03T10:49:32.007Z,98978.18
2018-10-03T10:52:01.485Z,98978.50
2018-10-03T10:54:31.321Z,98982.20
2018-10-03T10:57:00.615Z,98981.48
2018-10-03T10:59:29.917Z,98988.76
2018-10-03T11:01:59.374Z,98984.86
2018-10-03T11:04:31.026Z,98978.73
2018-10-03T11:07:00.879Z,98978.05
2018-10-03T11:09:30.011Z,98985.80
2018-10-03T11:11:59.127Z,98986.44
2018-10-03T11:14:28.357Z,98982.13
2018-10-03T11:16:57.531Z,98984.84
2018-10-03T11:19:27.999Z,98987.51
2018-10-03T11:21:57.197Z,98987.35
2018-10-03T11:24:26.549Z,98982.77
2018-10-03T11:26:55.528Z,98977.27
2018-10-03T11:29:25.174Z,98977.55
2018-10-03T11:31:54.282Z,98975.31
2018-10-03T11:34:23.379Z,98967.97
2018-10-03T11:36:52.516Z,98970.61
2018-10-03T11:39:23.982Z,98976.39
2018-10-03T11:41:54.439Z,98968.15
2018-10-03T11:44:23.587Z,98968.81
2018-10-03T11:46:52.735Z,98978.64
2018-10-03T11:49:22.764Z,98976.50
2018-10-03T11:51:51.894Z,98968.15
2018-10-03T11:54:21.058Z,98977.68
2018-10-03T11:56:50.186Z,98983.47
2018-10-03T11:59:19.877Z,98974.95
2018-10-03T12:01:49.102Z,98985.71
2018-10-03T12:04:18.570Z,98984.03
2018-10-03T12:06:49.323Z,98978.03
2018-10-03T12:09:19.007Z,98973.97
2018-10-03T12:11:48.814Z,98975.34
2018-10-03T12:14:19.682Z,98975.04
2018-10-03T12:16:50.807Z,98983.22
2018-10-03T12:19:20.354Z,98975.62
2018-10-03T12:21:50.218Z,98975.36
2018-10-03T12:24:20.183Z,98980.27
2018-10-03T12:26:49.614Z,98978.31
2018-10-03T12:29:19.194Z,98975.74
2018-10-03T12:31:49.055Z,98974.67
2018-10-03T12:34:18.630Z,98975.70
2018-10-03T12:36:48.029Z,98973.17
2018-10-03T12:39:18.427Z,98980.01
2018-10-03T12:41:50.294Z,98978.50
2018-10-03T12:44:20.983Z,98985.55
2018-10-03T12:46:50.110Z,98984.57
2018-10-03T12:49:20.806Z,98980.78
2018-10-03T12:51:49.946Z,98981.22
2018-10-03T12:54:19.786Z,98981.59
2018-10-03T12:56:48.887Z,98976.64
2018-10-03T12:59:17.998Z,98979.04
2018-10-03T13:01:48.994Z,98977.34
2018-10-03T13:04:18.225Z,98970.73
2018-10-03T13:06:47.544Z,98964.98
2018-10-03T13:09:16.848Z,98976.97
2018-10-03T13:11:46.699Z,98979.19
2018-10-03T13:14:16.110Z,98975.83
2018-10-03T13:16:45.845Z,98973.77
2018-10-03T13:19:17.646Z,98975.61
2018-10-03T13:21:46.742Z,98969.22
2018-10-03T13:24:16.465Z,98973.39
2018-10-03T13:26:47.122Z,98968.99
2018-10-03T13:29:16.224Z,98976.28
2018-10-03T13:31:45.300Z,98967.10
2018-10-03T13:34:17.058Z,98974.18
2018-10-03T13:36:47.522Z,98974.83
2018-10-03T13:39:16.635Z,98969.91
2018-10-03T13:41:45.767Z,98973.95
2018-10-03T13:44:15.761Z,98981.39
2018-10-03T13:46:45.144Z,98981.09
2018-10-03T13:49:14.921Z,98982.19
2018-10-03T13:51:46.793Z,98978.34
2018-10-03T13:54:15.889Z,98983.09
2018-10-03T13:56:45.007Z,98983.38
2018-10-03T13:59:14.828Z,98983.27
2018-10-03T14:01:43.972Z,98983.19
2018-10-03T14:04:13.246Z,98973.99
2018-10-03T14:06:42.515Z,98978.21
2018-10-03T14:09:12.550Z,98977.93
2018-10-03T14:11:48.678Z,98977.66
2018-10-03T14:14:18.029Z,98973.70
2018-10-03T14:16:47.839Z,98978.85
2018-10-03T14:19:17.179Z,98976.22
2018-10-03T14:21:46.878Z,98977.63
2018-10-03T14:24:16.531Z,98980.97
2018-10-03T14:26:45.863Z,98986.77
2018-10-03T14:29:15.031Z,98992.34
2018-10-03T14:31:44.139Z,98990.07
2018-10-03T14:34:13.239Z,98990.17
2018-10-03T14:36:42.374Z,98986.59
2018-10-03T14:39:11.483Z,98989.52
2018-10-03T14:41:40.658Z,98983.59
2018-10-03T14:44:09.938Z,98985.47
2018-10-03T14:46:39.420Z,98990.71
2018-10-03T14:49:08.534Z,98986.61
2018-10-03T14:51:37.623Z,98987.50
2018-10-03T14:54:06.733Z,98985.03
2018-10-03T14:56:38.252Z,98981.83
2018-10-03T14:59:07.359Z,98979.06
2018-10-03T15:01:36.545Z,98984.09
2018-10-03T15:04:07.442Z,98989.75
2018-10-03T15:06:36.573Z,98986.52
2018-10-03T15:09:08.533Z,98984.52
2018-10-03T15:11:37.873Z,98983.05
2018-10-03T15:14:07.464Z,98976.91
2018-10-03T15:16:36.854Z,98973.58
2018-10-03T15:19:06.026Z,98971.31
2018-10-03T15:21:35.955Z,98970.53
2018-10-03T15:24:07.733Z,98968.05
2018-10-03T15:26:36.814Z,98971.00
2018-10-03T15:29:05.967Z,98977.47
2018-10-03T15:31:35.150Z,98978.63
2018-10-03T15:34:04.250Z,98976.36
2018-10-03T15:36:33.669Z,98981.78
2018-10-03T15:39:02.789Z,98980.02
2018-10-03T15:41:31.913Z,98983.08
2018-10-03T15:44:01.534Z,98987.84
2018-10-03T15:46:30.653Z,98993.53
2018-10-03T15:49:00.019Z,98993.05
2018-10-03T15:51:29.830Z,98997.58
2018-10-03T15:53:58.946Z,99000.33
2018-10-03T15:56:28.078Z,99008.70
2018-10-03T15:58:57.206Z,99013.34
2018-10-03T16:01:27.842Z,99007.42
2018-10-03T16:03:57.053Z,99008.55
2018-10-03T16:06:26.146Z,99010.61
2018-10-03T16:08:55.339Z,99014.84
2018-10-03T16:11:25.055Z,99020.54
2018-10-03T16:13:54.173Z,99016.14
2018-10-03T16:16:23.274Z,99015.30
2018-10-03T16:18:52.379Z,99022.55
2018-10-03T16:21:21.481Z,99019.82
2018-10-03T16:23:50.595Z,99019.86
2018-10-03T16:26:19.773Z,99021.50
2018-10-03T16:28:48.806Z,99023.31
2018-10-03T16:31:18.284Z,99025.06
2018-10-03T16:33:47.438Z,99017.72
2018-10-03T16:36:16.546Z,99024.01
2018-10-03T16:38:45.988Z,99027.58
2018-10-03T16:41:15.250Z,99028.22
2018-10-03T16:43:44.450Z,99035.45
2018-10-03T16:46:13.618Z,99033.84
2018-10-03T16:48:42.723Z,99034.79
2018-10-03T16:51:12.214Z,99032.18
2018-10-03T16:53:41.314Z,99035.10
2018-10-03T16:56:11.387Z,99033.82
2018-10-03T16:58:41.150Z,99037.62
2018-10-03T17:01:10.395Z,99037.79
2018-10-03T17:03:39.612Z,99043.13
2018-10-03T17:06:08.777Z,99048.13
2018-10-03T17:08:37.962Z,99051.25
2018-10-03T17:11:07.148Z,99048.85
2018-10-03T17:13:51.997Z,99049.70
2018-10-03T17:16:21.492Z,99055.28
2018-10-03T17:18:50.723Z,99061.56
2018-10-03T17:21:19.882Z,99055.09
2018-10-03T17:23:49.887Z,99059.66
2018-10-03T17:26:19.138Z,99059.92
2018-10-03T17:28:50.866Z,99061.45
2018-10-03T17:31:20.690Z,99065.27
2018-10-03T17:33:50.060Z,99071.51
2018-10-03T17:36:19.143Z,99072.38
2018-10-03T17:38:50.739Z,99080.11
2018-10-03T17:41:19.851Z,99081.09
2018-10-03T17:43:49.246Z,99082.70
2018-10-03T17:46:18.547Z,99083.91
2018-10-03T17:48:47.686Z,99087.61
2018-10-03T17:51:16.797Z,99086.33
2018-10-03T17:53:47.693Z,99089.19
2018-10-03T17:56:16.830Z,99096.09
2018-10-03T17:58:45.935Z,99090.98
2018-10-03T18:01:16.058Z,99097.88
2018-10-03T18:03:45.207Z,99093.72
2018-10-03T18:06:14.314Z,99093.87
2018-10-03T18:08:43.565Z,99094.36
2018-10-03T18:11:12.707Z,99091.66
2018-10-03T18:13:41.907Z,99096.89
2018-10-03T18:16:11.006Z,99092.28
2018-10-03T18:18:41.703Z,99097.38
2018-10-03T18:21:17.227Z,99105.31
2018-10-03T18:23:46.527Z,99104.22
2018-10-03T18:26:16.110Z,99107.41
2018-10-03T18:28:45.290Z,99107.24
2018-10-03T18:31:14.556Z,99102.78
2018-10-03T18:33:43.925Z,99107.37
2018-10-03T18:36:13.166Z,99109.28
2018-10-03T18:38:42.290Z,99104.81
2018-10-03T18:41:11.722Z,99110.38
2018-10-03T18:43:40.826Z,99108.96
2018-10-03T18:46:09.954Z,99106.39
2018-10-03T18:48:39.095Z,99110.88
2018-10-03T18:51:08.227Z,99112.59
2018-10-03T18:53:38.087Z,99121.78
2018-10-03T18:56:07.194Z,99127.34
2018-10-03T18:58:36.482Z,99125.22
2018-10-03T19:01:06.234Z,99119.31
2018-10-03T19:03:36.135Z,99122.81
2018-10-03T19:06:05.317Z,99126.55
2018-10-03T19:08:34.670Z,99126.81
2018-10-03T19:11:03.790Z,99140.27
2018-10-03T19:13:32.899Z,99136.58
2018-10-03T19:16:02.078Z,99132.89
2018-10-03T19:18:31.203Z,99140.65
2018-10-03T19:21:00.335Z,99138.80
2018-10-03T19:23:29.682Z,99139.06
2018-10-03T19:25:58.839Z,99138.41
2018-10-03T19:28:28.709Z,99140.02
2018-10-03T19:30:57.855Z,99138.68
2018-10-03T19:33:26.966Z,99140.80
2018-10-03T19:35:56.092Z,99143.74
2018-10-03T19:38:25.882Z,99145.02
2018-10-03T19:40:54.993Z,99148.26
2018-10-03T19:43:24.134Z,99151.00
2018-10-03T19:45:53.257Z,99157.28
2018-10-03T19:48:22.454Z,99160.13
2018-10-03T19:50:53.869Z,99159.92
2018-10-03T19:53:28.305Z,99159.69
2018-10-03T19:55:57.452Z,99160.74
2018-10-03T19:58:26.573Z,99156.44
2018-10-03T20:00:55.933Z,99169.92
2018-10-03T20:03:25.069Z,99159.91
2018-10-03T20:05:54.218Z,99155.94
2018-10-03T20:08:24.076Z,99165.91
2018-10-03T20:10:53.206Z,99162.66
2018-10-03T20:13:22.858Z,99167.86
2018-10-03T20:15:52.593Z,99169.60
2018-10-03T20:18:22.703Z,99171.00
2018-10-03T20:20:52.474Z,99163.23
2018-10-03T20:23:22.339Z,99158.02
2018-10-03T20:25:51.671Z,99165.66
2018-10-03T20:28:22.607Z,99166.59
2018-10-03T20:30:51.716Z,99171.62
2018-10-03T20:33:20.821Z,99170.22
2018-10-03T20:35:49.975Z,99172.75
2018-10-03T20:38:19.487Z,99172.56
2018-10-03T20:40:49.658Z,99173.85
2018-10-03T20:43:18.834Z,99175.09
2018-10-03T20:45:47.934Z,99168.09
2018-10-03T20:48:17.118Z,99174.34
2018-10-03T20:50:46.183Z,99168.41
2018-10-03T20:53:15.342Z,99171.52
2018-10-03T20:55:44.505Z,99166.98
2018-10-03T20:58:13.648Z,99157.91
2018-10-03T21:00:42.779Z,99160.36
2018-10-03T21:03:11.930Z,99160.97
2018-10-03T21:05:41.656Z,99165.15
2018-10-03T21:08:10.837Z,99165.61
2018-10-03T21:10:39.975Z,99172.59
2018-10-03T21:13:09.092Z,99176.06
2018-10-03T21:15:38.294Z,99178.56
2018-10-03T21:18:07.459Z,99179.88
2018-10-03T21:20:36.826Z,99183.88
2018-10-03T21:23:06.199Z,99191.42
2018-10-03T21:25:35.455Z,99188.38
2018-10-03T21:28:04.618Z,99190.78
2018-10-03T21:30:33.742Z,99189.53
2018-10-03T21:33:02.834Z,99185.92
2018-10-03T21:35:32.250Z,99196.03
2018-10-03T21:38:01.355Z,99197.12
2018-10-03T21:40:30.435Z,99185.61
2018-10-03T21:42:59.560Z,99188.07
2018-10-03T21:45:32.702Z,99187.90
2018-10-03T21:48:01.846Z,99191.09
2018-10-03T21:50:30.958Z,99188.84
2018-10-03T21:53:00.068Z,99189.62
2018-10-03T21:55:29.206Z,99187.47
2018-10-03T21:57:58.655Z,99187.19
2018-10-03T22:00:33.331Z,99186.72
2018-10-03T22:03:03.466Z,99188.48
2018-10-03T22:05:32.986Z,99198.81
2018-10-03T22:08:02.918Z,99191.78
2018-10-03T22:10:32.059Z,99193.23
2018-10-03T22:13:01.185Z,99194.49
2018-10-03T22:15:32.577Z,99188.48
2018-10-03T22:18:01.732Z,99186.16
2018-10-03T22:20:31.580Z,99187.43
2018-10-03T22:23:02.345Z,99185.15
2018-10-03T22:25:32.145Z,99185.87
2018-10-03T22:28:01.368Z,99189.08
2018-10-03T22:30:31.375Z,99187.91
2018-10-03T22:33:00.735Z,99181.76
2018-10-03T22:35:30.008Z,99186.07
2018-10-03T22:37:59.102Z,99184.80
2018-10-03T22:40:28.335Z,99187.69
2018-10-03T22:42:57.486Z,99189.72
2018-10-03T22:45:26.586Z,99182.55
2018-10-03T22:47:55.699Z,99183.98
2018-10-03T22:50:24.807Z,99182.83
2018-10-03T22:52:56.399Z,99179.64
2018-10-03T22:55:25.518Z,99181.09
2018-10-03T22:57:54.616Z,99181.41
2018-10-03T23:00:23.762Z,99180.98
2018-10-03T23:02:52.971Z,99183.42
2018-10-03T23:05:22.100Z,99187.58
2018-10-03T23:07:52.449Z,99184.41
2018-10-03T23:10:21.590Z,99191.80
2018-10-03T23:12:50.987Z,99188.33
2018-10-03T23:15:20.131Z,99189.20
2018-10-03T23:17:49.278Z,99186.34
2018-10-03T23:20:18.795Z,99197.38
2018-10-03T23:22:47.934Z,99192.91
2018-10-03T23:25:17.079Z,99194.30
2018-10-03T23:27:48.634Z,99196.32
2018-10-03T23:30:17.834Z,99193.12
2018-10-03T23:32:47.667Z,99197.71
2018-10-03T23:35:17.434Z,99203.05
2018-10-03T23:37:46.640Z,99198.81
2018-10-03T23:40:16.406Z,99205.66
2018-10-03T23:42:45.548Z,99203.13
2018-10-03T23:45:14.679Z,99196.87
2018-10-03T23:47:43.765Z,99203.08
2018-10-03T23:50:12.918Z,99205.16
2018-10-03T23:52:42.019Z,99208.48
2018-10-03T23:55:14.342Z,99213.46
2018-10-03T23:57:43.442Z,99216.66
